Time;durP1;ratioP1;P1;durP2;ratioP2;P2;SDS_P1;SDS_P2;PMS_P1;PMS_P2;Temp;Humidity;BMP_temperature;BMP_pressure;BME280_temperature;BME280_humidity;BME280_pressure;Samples;Min_cycle;Max_cycle;Signal;HPM_P1;HPM_P2
2023/12/04 00:01:42;;;;;;;;;;;0.50;99.90;;;;;;5129560;27;19927;-79
2023/12/04 00:04:08;;;;;;;;;;;0.40;99.90;;;;;;5130761;27;19919;-79
2023/12/04 00:06:33;;;;;;;;;;;0.40;99.90;;;;;;5129471;27;19973;-79
2023/12/04 00:08:59;;;;;;;;;;;0.40;99.90;;;;;;5131255;27;19919;-79
2023/12/04 00:11:24;;;;;;;;;;;0.40;99.90;;;;;;5126890;27;20009;-78
2023/12/04 00:13:50;;;;;;;;;;;0.40;99.90;;;;;;5129363;27;20271;-78
2023/12/04 00:16:15;;;;;;;;;;;0.50;99.90;;;;;;5128503;27;19934;-78
2023/12/04 00:18:41;;;;;;;;;;;0.40;99.90;;;;;;5126008;27;19923;-79
2023/12/04 00:21:06;;;;;;;;;;;0.50;99.90;;;;;;5123170;27;19923;-80
2023/12/04 00:23:32;;;;;;;;;;;0.50;99.90;;;;;;5126787;27;19919;-79
2023/12/04 00:25:58;;;;;;;;;;;0.50;99.90;;;;;;5112892;27;20520;-79
2023/12/04 00:28:23;;;;;;;;;;;0.50;99.90;;;;;;5114553;27;19927;-80
2023/12/04 00:30:49;;;;;;;;;;;0.40;99.90;;;;;;5125483;27;19962;-80
2023/12/04 00:33:14;;;;;;;;;;;0.40;99.90;;;;;;5117701;27;19927;-80
2023/12/04 00:35:40;;;;;;;;;;;0.50;99.90;;;;;;5117984;27;19927;-79
2023/12/04 00:38:05;;;;;;;;;;;0.40;99.90;;;;;;5120653;27;19992;-79
2023/12/04 00:40:34;;;;;;;;;;;0.50;99.90;;;;;;5116881;27;19923;-80
2023/12/04 00:42:59;;;;;;;;;;;0.50;99.90;;;;;;5130003;27;20018;-82
2023/12/04 00:45:25;;;;;;;;;;;0.80;99.90;;;;;;5121165;27;20055;-80
2023/12/04 00:47:50;;;;;;;;;;;0.50;99.90;;;;;;5128031;27;19919;-80
2023/12/04 00:50:16;;;;;;;;;;;0.60;99.90;;;;;;5126461;27;19919;-80
2023/12/04 00:52:41;;;;;;;;;;;0.50;99.90;;;;;;5126153;27;19926;-79
2023/12/04 00:55:07;;;;;;;;;;;0.50;99.90;;;;;;5117251;27;19958;-79
2023/12/04 00:57:33;;;;;;;;;;;0.50;99.90;;;;;;5128275;27;19915;-79
2023/12/04 00:59:58;;;;;;;;;;;0.50;99.90;;;;;;5128358;27;20038;-80
2023/12/04 01:02:24;;;;;;;;;;;0.40;99.90;;;;;;5128055;27;19920;-79
2023/12/04 01:04:49;;;;;;;;;;;0.40;99.90;;;;;;5128761;27;20370;-79
2023/12/04 01:07:15;;;;;;;;;;;0.40;99.90;;;;;;5122133;27;20476;-81
2023/12/04 01:09:40;;;;;;;;;;;0.40;99.90;;;;;;5119303;27;20010;-80
2023/12/04 01:12:06;;;;;;;;;;;0.50;99.90;;;;;;5127404;27;20393;-80
2023/12/04 01:14:32;;;;;;;;;;;0.40;99.90;;;;;;5116745;27;19926;-81
2023/12/04 01:16:58;;;;;;;;;;;0.40;99.90;;;;;;5117776;27;19924;-78
2023/12/04 01:19:23;;;;;;;;;;;0.40;99.90;;;;;;5102827;27;19926;-81
2023/12/04 01:21:49;;;;;;;;;;;0.40;99.90;;;;;;5103051;28;19965;-80
2023/12/04 01:24:15;;;;;;;;;;;0.40;99.90;;;;;;5107276;28;19923;-78
2023/12/04 01:26:40;;;;;;;;;;;0.50;99.90;;;;;;5105055;28;19976;-80
2023/12/04 01:29:06;;;;;;;;;;;1.70;99.90;;;;;;5105153;28;20022;-80
2023/12/04 01:31:32;;;;;;;;;;;0.40;99.90;;;;;;5107252;28;20389;-81
2023/12/04 01:33:57;;;;;;;;;;;0.40;99.90;;;;;;5104665;28;19928;-79
2023/12/04 01:36:23;;;;;;;;;;;0.40;99.90;;;;;;5106026;28;19939;-80
2023/12/04 01:38:48;;;;;;;;;;;1.10;99.90;;;;;;5110253;27;19924;-81
2023/12/04 01:41:14;;;;;;;;;;;0.40;99.90;;;;;;5107179;28;19919;-81
2023/12/04 01:43:39;;;;;;;;;;;0.40;99.90;;;;;;5107609;28;19916;-80
2023/12/04 01:46:06;;;;;;;;;;;0.50;99.90;;;;;;5115591;27;20026;-81
2023/12/04 01:48:32;;;;;;;;;;;0.50;99.90;;;;;;5106015;28;19966;-80
2023/12/04 01:50:58;;;;;;;;;;;0.50;99.90;;;;;;5106272;28;19924;-81
2023/12/04 01:53:24;;;;;;;;;;;0.40;99.90;;;;;;5124379;27;19948;-80
2023/12/04 01:55:49;;;;;;;;;;;0.50;99.90;;;;;;5104308;27;20393;-81
2023/12/04 01:58:15;;;;;;;;;;;0.40;99.90;;;;;;5106786;28;20583;-81
2023/12/04 02:00:41;;;;;;;;;;;0.50;99.90;;;;;;5106262;28;19972;-81
2023/12/04 02:03:07;;;;;;;;;;;0.40;99.90;;;;;;5108047;28;19972;-80
2023/12/04 02:05:34;;;;;;;;;;;0.50;99.90;;;;;;5106100;28;19926;-81
2023/12/04 02:08:00;;;;;;;;;;;0.50;99.90;;;;;;5108111;28;19919;-83
2023/12/04 02:10:26;;;;;;;;;;;0.50;99.90;;;;;;5106229;28;19946;-81
2023/12/04 02:12:52;;;;;;;;;;;0.50;99.90;;;;;;5110445;28;19919;-80
2023/12/04 02:15:17;;;;;;;;;;;0.50;99.90;;;;;;5111236;28;19920;-84
2023/12/04 02:17:44;;;;;;;;;;;0.50;99.90;;;;;;5110516;27;19926;-81
2023/12/04 02:20:12;;;;;;;;;;;0.50;99.90;;;;;;5121043;27;19919;-80
2023/12/04 02:22:37;;;;;;;;;;;0.50;99.90;;;;;;5120829;27;20367;-81
2023/12/04 02:25:04;;;;;;;;;;;0.50;99.90;;;;;;5130062;27;19971;-80
2023/12/04 02:27:34;;;;;;;;;;;0.50;99.90;;;;;;5127927;27;19926;-82
2023/12/04 02:30:01;;;;;;;;;;;0.50;99.90;;;;;;5148759;27;19923;-82
2023/12/04 02:32:29;;;;;;;;;;;0.50;99.90;;;;;;5120884;27;20294;-80
2023/12/04 02:34:54;;;;;;;;;;;0.90;99.90;;;;;;5124473;27;19949;-82
2023/12/04 02:37:21;;;;;;;;;;;0.50;99.90;;;;;;5127846;27;19923;-81
2023/12/04 02:39:48;;;;;;;;;;;0.40;99.90;;;;;;5111124;27;20275;-81
2023/12/04 02:42:14;;;;;;;;;;;0.40;99.90;;;;;;5114174;27;19919;-81
2023/12/04 02:44:40;;;;;;;;;;;-0.40;99.90;;;;;;5129133;27;19944;-81
2023/12/04 02:47:05;;;;;;;;;;;0.60;99.90;;;;;;5120945;27;19926;-80
2023/12/04 02:49:31;;;;;;;;;;;0.50;99.90;;;;;;5125158;27;19958;-81
2023/12/04 02:51:57;;;;;;;;;;;0.50;99.90;;;;;;5121999;27;20026;-81
2023/12/04 02:54:23;;;;;;;;;;;0.50;99.90;;;;;;5122491;27;19954;-84
2023/12/04 02:56:48;;;;;;;;;;;0.50;99.90;;;;;;5125758;27;20410;-81
2023/12/04 02:59:14;;;;;;;;;;;0.50;99.90;;;;;;5122055;27;19978;-81
2023/12/04 03:01:39;;;;;;;;;;;0.50;99.90;;;;;;5116627;28;19919;-84
2023/12/04 03:04:05;;;;;;;;;;;0.50;99.90;;;;;;5114420;27;19923;-81
2023/12/04 03:06:30;;;;;;;;;;;0.50;99.90;;;;;;5121903;27;19926;-82
2023/12/04 03:08:57;;;;;;;;;;;0.50;99.90;;;;;;5127952;27;19919;-83
2023/12/04 03:11:23;;;;;;;;;;;0.50;99.90;;;;;;5125918;27;19919;-82
2023/12/04 03:13:48;;;;;;;;;;;0.50;99.90;;;;;;5127718;27;19967;-82
2023/12/04 03:16:17;;;;;;;;;;;1.30;99.90;;;;;;5130871;27;19915;-82
2023/12/04 03:18:43;;;;;;;;;;;0.50;99.90;;;;;;5122229;27;19926;-82
2023/12/04 03:21:09;;;;;;;;;;;0.50;99.90;;;;;;5125791;27;19919;-82
2023/12/04 03:23:34;;;;;;;;;;;0.50;99.90;;;;;;5128777;27;19964;-82
2023/12/04 03:26:03;;;;;;;;;;;0.50;99.90;;;;;;5121243;27;19919;-82
2023/12/04 03:28:31;;;;;;;;;;;0.50;99.90;;;;;;5109976;27;19926;-81
2023/12/04 03:30:57;;;;;;;;;;;0.50;99.90;;;;;;5125874;27;19938;-81
2023/12/04 03:33:22;;;;;;;;;;;0.50;99.90;;;;;;5127048;27;20287;-83
2023/12/04 03:35:48;;;;;;;;;;;0.50;99.90;;;;;;5123529;27;20341;-83
2023/12/04 03:38:14;;;;;;;;;;;1.00;99.90;;;;;;5124803;27;19947;-83
2023/12/04 03:40:39;;;;;;;;;;;1.00;99.90;;;;;;5123363;27;19919;-82
2023/12/04 03:43:05;;;;;;;;;;;0.60;99.90;;;;;;5117065;27;20006;-82
2023/12/04 03:45:30;;;;;;;;;;;0.60;99.90;;;;;;5126792;27;19945;-81
2023/12/04 03:47:56;;;;;;;;;;;0.60;99.90;;;;;;5125786;27;20062;-81
2023/12/04 03:50:21;;;;;;;;;;;0.60;99.90;;;;;;5131464;27;19980;-85
2023/12/04 03:52:47;;;;;;;;;;;0.60;99.90;;;;;;5131668;27;19992;-82
2023/12/04 03:55:13;;;;;;;;;;;0.80;99.90;;;;;;5115647;27;20271;-82
2023/12/04 03:57:38;;;;;;;;;;;0.60;99.90;;;;;;5114539;27;20285;-81
2023/12/04 04:00:04;;;;;;;;;;;0.60;99.90;;;;;;5128385;27;19930;-82
2023/12/04 04:02:30;;;;;;;;;;;0.60;99.90;;;;;;5124857;27;19927;-82
2023/12/04 04:04:55;;;;;;;;;;;0.60;99.90;;;;;;5127971;27;19931;-81
2023/12/04 04:07:21;;;;;;;;;;;0.60;99.90;;;;;;5117287;27;19928;-83
2023/12/04 04:09:47;;;;;;;;;;;0.60;99.90;;;;;;5121192;27;20402;-84
2023/12/04 04:12:12;;;;;;;;;;;0.60;99.90;;;;;;5125364;27;19919;-83
2023/12/04 04:14:38;;;;;;;;;;;0.60;99.90;;;;;;5127805;27;19959;-82
2023/12/04 04:17:04;;;;;;;;;;;0.60;99.90;;;;;;5122705;27;19919;-83
2023/12/04 04:19:29;;;;;;;;;;;0.60;99.90;;;;;;5115420;27;20398;-82
2023/12/04 04:21:55;;;;;;;;;;;0.60;99.90;;;;;;5122400;27;19984;-82
2023/12/04 04:24:20;;;;;;;;;;;0.60;99.90;;;;;;5118222;27;19920;-83
2023/12/04 04:26:46;;;;;;;;;;;0.60;99.90;;;;;;5122766;27;19977;-85
2023/12/04 04:29:11;;;;;;;;;;;0.60;99.90;;;;;;5148299;27;19926;-85
2023/12/04 04:31:37;;;;;;;;;;;1.50;99.90;;;;;;5120005;27;19920;-83
2023/12/04 04:34:02;;;;;;;;;;;0.80;99.90;;;;;;5119894;27;19923;-82
2023/12/04 04:36:28;;;;;;;;;;;0.60;99.90;;;;;;5126330;27;20382;-85
2023/12/04 04:38:54;;;;;;;;;;;0.60;99.90;;;;;;5123125;27;19931;-84
2023/12/04 04:41:19;;;;;;;;;;;0.60;99.90;;;;;;5126100;27;19964;-84
2023/12/04 04:43:45;;;;;;;;;;;0.60;99.90;;;;;;5129211;27;20002;-83
2023/12/04 04:46:10;;;;;;;;;;;0.60;99.90;;;;;;5127423;27;20410;-83
2023/12/04 04:48:36;;;;;;;;;;;0.60;99.90;;;;;;5120640;27;20377;-84
2023/12/04 04:51:01;;;;;;;;;;;0.70;99.90;;;;;;5114222;27;19926;-82
2023/12/04 04:53:27;;;;;;;;;;;0.60;99.90;;;;;;5121347;27;19920;-83
2023/12/04 04:55:53;;;;;;;;;;;0.60;99.90;;;;;;5118518;27;19976;-83
2023/12/04 04:58:19;;;;;;;;;;;0.80;99.90;;;;;;5110663;27;19919;-83
2023/12/04 05:00:45;;;;;;;;;;;0.70;99.90;;;;;;5123391;27;19925;-82
2023/12/04 05:03:11;;;;;;;;;;;1.30;99.90;;;;;;5115734;27;19919;-85
2023/12/04 05:05:36;;;;;;;;;;;0.70;99.90;;;;;;5119697;27;20022;-83
2023/12/04 05:08:02;;;;;;;;;;;1.40;99.90;;;;;;5128174;27;19943;-82
2023/12/04 05:10:27;;;;;;;;;;;0.70;99.90;;;;;;5122228;27;19923;-83
2023/12/04 05:12:53;;;;;;;;;;;0.70;99.90;;;;;;5126455;27;19973;-83
2023/12/04 05:15:18;;;;;;;;;;;0.70;99.90;;;;;;5123624;27;19947;-83
2023/12/04 05:17:44;;;;;;;;;;;0.70;99.90;;;;;;5115686;27;19919;-84
2023/12/04 05:20:10;;;;;;;;;;;1.00;99.90;;;;;;5115852;27;19919;-83
2023/12/04 05:22:35;;;;;;;;;;;0.70;99.90;;;;;;5128983;27;19923;-82
2023/12/04 05:25:01;;;;;;;;;;;0.70;99.90;;;;;;5134861;27;19954;-81
2023/12/04 05:27:27;;;;;;;;;;;0.20;99.90;;;;;;5116298;27;19923;-84
2023/12/04 05:29:52;;;;;;;;;;;0.70;99.90;;;;;;5112112;27;20281;-83
2023/12/04 05:32:18;;;;;;;;;;;0.70;99.90;;;;;;5122290;27;20394;-83
2023/12/04 05:34:43;;;;;;;;;;;0.70;99.90;;;;;;5121972;27;20309;-83
2023/12/04 05:37:09;;;;;;;;;;;0.70;99.90;;;;;;5118740;27;19919;-83
2023/12/04 05:39:34;;;;;;;;;;;0.70;99.90;;;;;;5126066;27;20289;-83
2023/12/04 05:42:00;;;;;;;;;;;0.70;99.90;;;;;;5120151;27;20252;-83
2023/12/04 05:44:25;;;;;;;;;;;0.70;99.90;;;;;;5122358;27;20297;-82
2023/12/04 05:46:52;;;;;;;;;;;0.70;99.90;;;;;;5121935;27;19926;-83
2023/12/04 05:49:17;;;;;;;;;;;0.70;99.90;;;;;;5149686;27;19950;-84
2023/12/04 05:51:43;;;;;;;;;;;0.70;99.90;;;;;;5123711;27;20011;-83
2023/12/04 05:54:11;;;;;;;;;;;0.70;99.90;;;;;;5126951;27;19926;-82
2023/12/04 05:56:40;;;;;;;;;;;0.70;99.90;;;;;;5112957;27;20014;-83
2023/12/04 05:59:05;;;;;;;;;;;1.60;99.90;;;;;;5128128;27;19923;-81
2023/12/04 06:01:31;;;;;;;;;;;0.70;99.90;;;;;;5129795;27;19925;-82
2023/12/04 06:03:57;;;;;;;;;;;0.80;99.90;;;;;;5129476;27;20049;-84
2023/12/04 06:06:22;;;;;;;;;;;0.70;99.90;;;;;;5139052;27;19919;-82
2023/12/04 06:08:48;;;;;;;;;;;0.70;99.90;;;;;;5127780;27;19925;-81
2023/12/04 06:11:16;;;;;;;;;;;0.70;99.90;;;;;;5125531;27;20030;-81
2023/12/04 06:13:41;;;;;;;;;;;1.00;99.90;;;;;;5130114;27;20397;-83
2023/12/04 06:16:07;;;;;;;;;;;0.70;99.90;;;;;;5114302;27;20334;-83
2023/12/04 06:18:33;;;;;;;;;;;0.70;99.90;;;;;;5119552;27;20390;-82
2023/12/04 06:20:58;;;;;;;;;;;0.70;99.90;;;;;;5129660;27;20042;-82
2023/12/04 06:23:24;;;;;;;;;;;0.70;99.90;;;;;;5128748;27;20366;-83
2023/12/04 06:25:50;;;;;;;;;;;0.70;99.90;;;;;;5120661;27;19926;-82
2023/12/04 06:28:15;;;;;;;;;;;0.70;99.90;;;;;;5143972;27;19923;-82
2023/12/04 06:30:41;;;;;;;;;;;0.70;99.90;;;;;;5122326;27;19983;-82
2023/12/04 06:33:07;;;;;;;;;;;0.70;99.90;;;;;;5132134;27;20309;-81
2023/12/04 06:35:33;;;;;;;;;;;0.70;99.90;;;;;;5118185;27;19916;-81
2023/12/04 06:38:02;;;;;;;;;;;0.70;99.90;;;;;;5132860;27;19937;-83
2023/12/04 06:40:27;;;;;;;;;;;0.80;99.90;;;;;;5130415;27;19930;-82
2023/12/04 06:42:53;;;;;;;;;;;0.70;99.90;;;;;;5130600;27;19919;-83
2023/12/04 06:45:19;;;;;;;;;;;0.70;99.90;;;;;;5129655;27;19923;-82
2023/12/04 06:47:45;;;;;;;;;;;0.70;99.90;;;;;;5133523;27;20350;-81
2023/12/04 06:50:14;;;;;;;;;;;0.70;99.90;;;;;;5127567;27;19923;-83
2023/12/04 06:52:43;;;;;;;;;;;0.70;99.90;;;;;;5126179;27;19919;-86
2023/12/04 06:55:08;;;;;;;;;;;0.70;99.90;;;;;;5131946;27;20306;-83
2023/12/04 06:57:34;;;;;;;;;;;0.70;99.90;;;;;;5130725;27;19919;-85
2023/12/04 07:00:00;;;;;;;;;;;0.70;99.90;;;;;;5126182;27;20682;-85
2023/12/04 07:02:25;;;;;;;;;;;0.70;99.90;;;;;;5149832;27;20421;-82
2023/12/04 07:04:51;;;;;;;;;;;0.70;99.90;;;;;;5139777;27;19919;-83
2023/12/04 07:07:16;;;;;;;;;;;0.70;99.90;;;;;;5128486;27;19914;-84
2023/12/04 07:09:42;;;;;;;;;;;0.70;99.90;;;;;;5130051;27;20009;-82
2023/12/04 07:12:07;;;;;;;;;;;1.40;99.90;;;;;;5120573;27;19923;-84
2023/12/04 07:14:33;;;;;;;;;;;0.60;99.90;;;;;;5128030;27;19915;-80
2023/12/04 07:17:00;;;;;;;;;;;0.60;99.90;;;;;;5127967;27;20289;-84
2023/12/04 07:19:26;;;;;;;;;;;1.00;99.90;;;;;;5129163;27;19967;-81
2023/12/04 07:21:52;;;;;;;;;;;0.60;99.90;;;;;;5130282;27;20341;-82
2023/12/04 07:24:18;;;;;;;;;;;0.60;99.90;;;;;;5131984;27;19941;-81
2023/12/04 07:26:44;;;;;;;;;;;0.60;99.90;;;;;;5116540;27;20339;-82
2023/12/04 07:29:09;;;;;;;;;;;0.80;99.90;;;;;;5117971;27;19934;-83
2023/12/04 07:31:35;;;;;;;;;;;0.60;99.90;;;;;;5132866;27;19923;-81
2023/12/04 07:34:01;;;;;;;;;;;0.60;99.90;;;;;;5130788;27;20344;-82
2023/12/04 07:36:27;;;;;;;;;;;0.60;99.90;;;;;;5120982;27;19920;-82
2023/12/04 07:38:53;;;;;;;;;;;0.60;99.90;;;;;;5129527;27;20071;-83
2023/12/04 07:41:19;;;;;;;;;;;1.10;99.90;;;;;;5120579;27;20021;-81
2023/12/04 07:43:45;;;;;;;;;;;1.50;99.90;;;;;;5127465;27;20003;-80
2023/12/04 07:46:11;;;;;;;;;;;0.60;99.90;;;;;;5123182;27;19946;-81
2023/12/04 07:48:37;;;;;;;;;;;0.60;99.90;;;;;;5124390;27;20113;-82
2023/12/04 07:51:03;;;;;;;;;;;0.60;99.90;;;;;;5129000;27;19976;-83
2023/12/04 07:53:28;;;;;;;;;;;0.60;99.90;;;;;;5128046;27;19920;-82
2023/12/04 07:55:54;;;;;;;;;;;0.60;99.90;;;;;;5114484;27;20294;-84
2023/12/04 07:58:20;;;;;;;;;;;0.70;99.90;;;;;;5117181;27;19920;-83
2023/12/04 08:00:45;;;;;;;;;;;0.60;99.90;;;;;;5128547;27;19924;-85
2023/12/04 08:03:11;;;;;;;;;;;0.60;99.90;;;;;;5126246;27;20027;-83
2023/12/04 08:05:36;;;;;;;;;;;1.40;99.90;;;;;;5125963;27;19967;-84
2023/12/04 08:08:02;;;;;;;;;;;0.60;99.90;;;;;;5131278;27;19919;-82
2023/12/04 08:10:27;;;;;;;;;;;0.60;99.90;;;;;;5125247;27;19923;-86
2023/12/04 08:12:53;;;;;;;;;;;1.20;99.90;;;;;;5116074;27;19919;-85
2023/12/04 08:15:19;;;;;;;;;;;0.60;99.90;;;;;;5122149;27;19923;-84
2023/12/04 08:17:44;;;;;;;;;;;0.70;99.90;;;;;;5110210;27;19920;-84
2023/12/04 08:20:13;;;;;;;;;;;0.70;99.90;;;;;;5126205;27;19998;-85
2023/12/04 08:22:41;;;;;;;;;;;0.70;99.90;;;;;;5132792;27;19975;-84
2023/12/04 08:25:08;;;;;;;;;;;0.70;99.90;;;;;;5130181;27;20007;-84
2023/12/04 08:27:33;;;;;;;;;;;0.80;99.90;;;;;;5117191;27;19919;-84
2023/12/04 08:29:59;;;;;;;;;;;1.80;99.90;;;;;;5114673;27;19929;-83
2023/12/04 08:32:26;;;;;;;;;;;0.80;99.90;;;;;;5150605;27;19919;-75
2023/12/04 08:34:52;;;;;;;;;;;0.80;99.90;;;;;;5131716;27;19919;-74
2023/12/04 08:37:18;;;;;;;;;;;0.80;99.90;;;;;;5146783;27;19926;-74
2023/12/04 08:39:44;;;;;;;;;;;0.80;99.90;;;;;;5132775;27;19919;-74
2023/12/04 08:42:10;;;;;;;;;;;0.90;99.90;;;;;;5143694;27;20267;-75
2023/12/04 08:44:37;;;;;;;;;;;0.90;99.90;;;;;;5129253;27;19929;-74
2023/12/04 08:47:03;;;;;;;;;;;0.90;99.90;;;;;;5129833;27;20170;-75
2023/12/04 08:49:28;;;;;;;;;;;0.90;99.90;;;;;;5122254;27;20392;-75
2023/12/04 08:51:54;;;;;;;;;;;0.90;99.90;;;;;;5126489;27;19942;-74
2023/12/04 08:54:19;;;;;;;;;;;0.90;99.90;;;;;;5133750;27;19918;-74
2023/12/04 08:56:45;;;;;;;;;;;1.50;99.90;;;;;;5140656;27;19977;-73
2023/12/04 08:59:10;;;;;;;;;;;1.00;99.90;;;;;;5126164;27;20168;-73
2023/12/04 09:01:36;;;;;;;;;;;1.00;99.90;;;;;;5125270;27;19962;-73
2023/12/04 09:04:02;;;;;;;;;;;1.00;99.90;;;;;;5127517;27;20366;-73
2023/12/04 09:06:27;;;;;;;;;;;1.00;99.90;;;;;;5127189;27;19923;-75
2023/12/04 09:08:53;;;;;;;;;;;1.40;99.90;;;;;;5127586;27;19970;-72
2023/12/04 09:11:19;;;;;;;;;;;1.80;99.90;;;;;;5123180;27;19926;-73
2023/12/04 09:13:44;;;;;;;;;;;1.70;99.90;;;;;;5123161;27;19919;-72
2023/12/04 09:16:10;;;;;;;;;;;1.10;99.90;;;;;;5122285;27;19919;-72
2023/12/04 09:18:36;;;;;;;;;;;1.20;99.90;;;;;;5125177;27;19927;-73
2023/12/04 09:21:01;;;;;;;;;;;1.20;99.90;;;;;;5129568;27;19920;-73
2023/12/04 09:23:27;;;;;;;;;;;1.20;99.90;;;;;;5120289;27;20396;-72
2023/12/04 09:25:52;;;;;;;;;;;1.70;99.90;;;;;;5111991;27;19919;-73
2023/12/04 09:28:18;;;;;;;;;;;1.20;99.90;;;;;;5120840;27;19968;-73
2023/12/04 09:30:44;;;;;;;;;;;1.70;99.90;;;;;;5128949;27;20010;-73
2023/12/04 09:33:09;;;;;;;;;;;1.20;99.90;;;;;;5123392;27;19935;-78
2023/12/04 09:35:35;;;;;;;;;;;1.20;99.90;;;;;;5123999;27;19966;-74
2023/12/04 09:38:00;;;;;;;;;;;1.20;99.90;;;;;;5115692;27;19919;-74
2023/12/04 09:40:26;;;;;;;;;;;1.30;99.90;;;;;;5131274;27;19919;-74
2023/12/04 09:42:52;;;;;;;;;;;2.00;99.90;;;;;;5127671;27;19991;-73
2023/12/04 09:45:18;;;;;;;;;;;1.60;99.90;;;;;;5114826;27;19996;-74
2023/12/04 09:47:56;;;;;;;;;;;1.30;99.90;;;;;;5129908;27;19919;-74
2023/12/04 09:50:22;;;;;;;;;;;1.30;99.90;;;;;;5111338;27;19919;-74
2023/12/04 09:52:50;;;;;;;;;;;1.30;99.90;;;;;;5112054;27;19926;-74
2023/12/04 09:55:16;;;;;;;;;;;1.30;99.90;;;;;;5119967;27;19923;-74
2023/12/04 09:57:43;;;;;;;;;;;1.30;99.90;;;;;;5113125;27;19926;-75
2023/12/04 10:00:10;;;;;;;;;;;1.40;99.90;;;;;;5113457;27;19970;-75
2023/12/04 10:02:36;;;;;;;;;;;1.40;99.90;;;;;;5125644;27;19923;-73
2023/12/04 10:05:04;;;;;;;;;;;1.40;99.90;;;;;;5126869;27;19964;-75
2023/12/04 10:07:30;;;;;;;;;;;1.80;99.90;;;;;;5124416;27;19975;-76
2023/12/04 10:09:55;;;;;;;;;;;1.50;99.90;;;;;;5143217;27;19923;-74
2023/12/04 10:12:24;;;;;;;;;;;1.70;99.90;;;;;;5140735;27;19996;-72
2023/12/04 10:15:02;;;;;;;;;;;1.50;99.90;;;;;;5154578;27;19919;-73
2023/12/04 10:17:32;;;;;;;;;;;1.60;99.90;;;;;;5137438;27;20418;-74
2023/12/04 10:20:10;;;;;;;;;;;1.70;99.90;;;;;;5115708;27;19927;-74
2023/12/04 10:22:36;;;;;;;;;;;1.70;99.90;;;;;;5130698;27;19927;-74
2023/12/04 10:25:15;;;;;;;;;;;1.70;99.90;;;;;;5118424;27;20275;-75
2023/12/04 10:27:44;;;;;;;;;;;1.80;99.90;;;;;;5113861;27;20153;-74
2023/12/04 10:30:12;;;;;;;;;;;1.80;99.90;;;;;;5113913;27;19924;-75
2023/12/04 10:32:41;;;;;;;;;;;1.90;99.90;;;;;;5121531;27;19919;-74
2023/12/04 10:35:12;;;;;;;;;;;2.00;99.90;;;;;;5146173;27;19927;-74
2023/12/04 10:37:38;;;;;;;;;;;2.00;99.90;;;;;;5126997;27;19918;-75
2023/12/04 10:40:08;;;;;;;;;;;2.10;99.90;;;;;;5127642;27;20368;-74
2023/12/04 10:42:34;;;;;;;;;;;2.20;99.90;;;;;;5130382;27;19987;-74
2023/12/04 10:45:00;;;;;;;;;;;2.30;99.90;;;;;;5123687;27;19923;-76
2023/12/04 10:47:28;;;;;;;;;;;2.30;99.90;;;;;;5115746;27;20409;-75
2023/12/04 10:49:54;;;;;;;;;;;2.40;99.90;;;;;;5116430;27;20408;-76
2023/12/04 10:52:21;;;;;;;;;;;2.50;99.90;;;;;;5128799;27;19919;-74
2023/12/04 10:54:50;;;;;;;;;;;3.10;99.90;;;;;;5113229;27;20227;-74
2023/12/04 10:57:25;;;;;;;;;;;3.10;99.90;;;;;;5119748;27;19927;-74
2023/12/04 10:59:52;;;;;;;;;;;2.60;99.90;;;;;;5111757;27;19920;-75
2023/12/04 11:02:21;;;;;;;;;;;2.60;99.90;;;;;;5108373;27;20026;-74
2023/12/04 11:04:54;;;;;;;;;;;2.60;99.90;;;;;;5101165;27;20032;-74
2023/12/04 11:07:20;;;;;;;;;;;2.60;99.90;;;;;;5105586;27;19932;-74
2023/12/04 11:09:47;;;;;;;;;;;2.60;99.90;;;;;;5103989;27;19931;-74
2023/12/04 11:12:14;;;;;;;;;;;3.00;99.90;;;;;;5103938;27;19927;-74
2023/12/04 11:14:46;;;;;;;;;;;2.90;99.90;;;;;;5108709;27;19931;-75
2023/12/04 11:17:13;;;;;;;;;;;2.70;99.90;;;;;;5107054;27;19927;-74
2023/12/04 11:19:49;;;;;;;;;;;2.70;99.90;;;;;;5101999;27;19923;-74
2023/12/04 11:22:20;;;;;;;;;;;2.70;99.90;;;;;;5102730;27;19976;-75
2023/12/04 11:24:47;;;;;;;;;;;2.90;99.90;;;;;;5105369;27;20423;-75
2023/12/04 11:27:17;;;;;;;;;;;3.00;99.90;;;;;;5096574;27;20023;-74
2023/12/04 11:29:43;;;;;;;;;;;3.60;99.90;;;;;;5102446;27;20385;-74
2023/12/04 11:32:15;;;;;;;;;;;3.30;99.90;;;;;;5121015;27;19969;-76
2023/12/04 11:34:48;;;;;;;;;;;3.60;99.90;;;;;;5120895;27;20324;-75
2023/12/04 11:37:14;;;;;;;;;;;3.00;99.90;;;;;;5128569;27;20401;-74
2023/12/04 11:39:45;;;;;;;;;;;3.00;99.90;;;;;;5123984;27;19923;-75
2023/12/04 11:42:12;;;;;;;;;;;3.00;99.90;;;;;;5113899;27;19919;-75
2023/12/04 11:44:40;;;;;;;;;;;3.00;99.90;;;;;;5113361;27;19927;-74
2023/12/04 11:47:06;;;;;;;;;;;3.10;99.90;;;;;;5124623;27;20274;-75
2023/12/04 11:49:32;;;;;;;;;;;3.30;99.90;;;;;;5120193;27;19915;-73
2023/12/04 11:51:58;;;;;;;;;;;3.10;99.90;;;;;;5111000;28;19923;-73
2023/12/04 11:54:26;;;;;;;;;;;3.50;99.90;;;;;;5112634;27;20286;-73
2023/12/04 11:56:56;;;;;;;;;;;3.20;99.90;;;;;;5115010;27;20113;-73
2023/12/04 11:59:22;;;;;;;;;;;3.70;99.90;;;;;;5127596;27;19963;-74
2023/12/04 12:01:50;;;;;;;;;;;3.40;99.90;;;;;;5111031;27;19974;-73
2023/12/04 12:04:17;;;;;;;;;;;4.00;99.90;;;;;;5131252;27;20025;-73
2023/12/04 12:06:42;;;;;;;;;;;3.50;99.90;;;;;;5122308;27;19919;-73
2023/12/04 12:09:08;;;;;;;;;;;3.50;99.90;;;;;;5115767;27;19926;-75
2023/12/04 12:11:33;;;;;;;;;;;3.40;99.90;;;;;;5127069;27;19926;-75
2023/12/04 12:13:59;;;;;;;;;;;3.40;99.90;;;;;;5114468;27;20006;-74
2023/12/04 12:16:26;;;;;;;;;;;3.30;99.90;;;;;;5113653;27;19926;-75
2023/12/04 12:18:51;;;;;;;;;;;3.10;99.90;;;;;;5109937;28;19926;-74
2023/12/04 12:21:17;;;;;;;;;;;3.10;99.90;;;;;;5110575;28;19920;-74
2023/12/04 12:23:43;;;;;;;;;;;3.10;99.90;;;;;;5103426;28;19919;-75
2023/12/04 12:26:09;;;;;;;;;;;3.50;99.90;;;;;;5101672;27;19945;-75
2023/12/04 12:28:35;;;;;;;;;;;3.20;99.90;;;;;;5111066;28;20010;-74
2023/12/04 12:31:04;;;;;;;;;;;2.80;99.90;;;;;;5123730;27;20271;-73
2023/12/04 12:33:29;;;;;;;;;;;2.80;99.90;;;;;;5110062;28;19928;-73
2023/12/04 12:35:55;;;;;;;;;;;3.20;99.90;;;;;;5109508;28;20346;-74
2023/12/04 12:38:21;;;;;;;;;;;2.90;99.90;;;;;;5108190;28;20002;-73
2023/12/04 12:40:46;;;;;;;;;;;3.00;99.90;;;;;;5108444;28;19954;-73
2023/12/04 12:43:12;;;;;;;;;;;2.70;99.90;;;;;;5114543;27;19919;-73
2023/12/04 12:45:42;;;;;;;;;;;2.60;99.90;;;;;;5109266;28;19980;-73
2023/12/04 12:48:14;;;;;;;;;;;2.60;99.90;;;;;;5110202;28;19919;-73
2023/12/04 12:50:43;;;;;;;;;;;2.60;99.90;;;;;;5109265;28;19972;-73
2023/12/04 12:53:13;;;;;;;;;;;2.50;99.90;;;;;;5107847;28;19971;-73
2023/12/04 12:55:40;;;;;;;;;;;2.50;99.90;;;;;;5109367;28;19965;-73
2023/12/04 12:58:06;;;;;;;;;;;2.70;99.90;;;;;;5093822;28;19924;-72
2023/12/04 13:00:33;;;;;;;;;;;2.40;99.90;;;;;;5106951;28;20277;-73
2023/12/04 13:02:59;;;;;;;;;;;2.40;99.90;;;;;;5109425;28;19931;-73
2023/12/04 13:05:24;;;;;;;;;;;2.40;99.90;;;;;;5103130;28;19919;-72
2023/12/04 13:07:50;;;;;;;;;;;3.10;99.90;;;;;;5101410;28;19943;-73
2023/12/04 13:10:15;;;;;;;;;;;2.40;99.90;;;;;;5107508;28;19927;-73
2023/12/04 13:12:41;;;;;;;;;;;2.40;99.90;;;;;;5108173;28;19927;-72
2023/12/04 13:15:07;;;;;;;;;;;2.40;99.90;;;;;;5108571;28;19928;-75
2023/12/04 13:17:32;;;;;;;;;;;2.40;99.90;;;;;;5109128;28;19919;-75
2023/12/04 13:19:58;;;;;;;;;;;2.30;99.90;;;;;;5127804;27;20138;-75
2023/12/04 13:22:24;;;;;;;;;;;2.30;99.90;;;;;;5127634;27;19923;-73
2023/12/04 13:24:49;;;;;;;;;;;2.30;99.90;;;;;;5119862;27;20006;-73
2023/12/04 13:27:15;;;;;;;;;;;2.30;99.90;;;;;;5127693;27;20425;-75
2023/12/04 13:29:40;;;;;;;;;;;2.30;99.90;;;;;;5111024;27;19926;-75
2023/12/04 13:32:07;;;;;;;;;;;2.90;99.90;;;;;;5124146;27;19972;-74
2023/12/04 13:34:33;;;;;;;;;;;2.20;99.90;;;;;;5122522;27;20040;-74
2023/12/04 13:36:58;;;;;;;;;;;2.30;99.90;;;;;;5119229;27;19923;-74
2023/12/04 13:39:38;;;;;;;;;;;2.60;99.90;;;;;;5109371;28;20414;-75
2023/12/04 13:44:48;;;;;;;;;;;2.20;99.90;;;;;;5113073;27;19926;-73
2023/12/04 13:47:15;;;;;;;;;;;2.10;99.90;;;;;;5128568;27;19920;-73
2023/12/04 13:49:41;;;;;;;;;;;2.20;99.90;;;;;;5129206;27;19919;-73
2023/12/04 13:52:08;;;;;;;;;;;2.10;99.90;;;;;;5124838;27;19926;-73
2023/12/04 13:54:47;;;;;;;;;;;2.40;99.90;;;;;;5112050;27;20236;-72
2023/12/04 13:57:27;;;;;;;;;;;2.40;99.90;;;;;;5106882;28;19920;-73
2023/12/04 13:59:55;;;;;;;;;;;2.20;99.90;;;;;;5125958;27;19923;-73
2023/12/04 14:02:21;;;;;;;;;;;2.20;99.90;;;;;;5127415;27;20010;-73
2023/12/04 14:04:48;;;;;;;;;;;2.90;99.90;;;;;;5125984;28;20407;-74
2023/12/04 14:07:14;;;;;;;;;;;2.30;99.90;;;;;;5127292;28;19925;-73
2023/12/04 14:09:40;;;;;;;;;;;2.30;99.90;;;;;;5124219;28;20014;-73
2023/12/04 14:12:06;;;;;;;;;;;2.30;99.90;;;;;;5126961;28;19930;-73
2023/12/04 14:14:33;;;;;;;;;;;2.30;99.90;;;;;;5119181;28;19920;-72
2023/12/04 14:16:58;;;;;;;;;;;2.20;99.90;;;;;;5107066;28;20015;-72
2023/12/04 14:19:24;;;;;;;;;;;2.20;99.90;;;;;;5107504;28;20382;-72
2023/12/04 14:21:50;;;;;;;;;;;2.20;99.90;;;;;;5109143;28;19920;-72
2023/12/04 14:24:15;;;;;;;;;;;2.10;99.90;;;;;;5108096;28;19971;-72
2023/12/04 14:26:41;;;;;;;;;;;2.90;99.90;;;;;;5106704;28;19923;-72
2023/12/04 14:29:07;;;;;;;;;;;2.40;99.90;;;;;;5108831;28;20010;-73